TimeEST,TemperatureF,Dew PointF,Humidity,Sea Level PressureIn,VisibilityMPH,Wind Direction,Wind SpeedMPH,Gust SpeedMPH,PrecipitationIn,Events,Conditions,WindDirDegrees,DateUTC
12:12 AM,30.2,24.8,80,29.94,10.0,NE,16.1,-,N/A,,Overcast,40,2013-03-06 05:12:00
12:53 AM,30.0,25.0,82,29.97,10.0,NE,15.0,-,N/A,,Overcast,40,2013-03-06 05:53:00
2:39 AM,28.4,21.2,74,29.96,10.0,NE,10.4,-,N/A,,Scattered Clouds,50,2013-03-06 07:39:00
2:53 AM,28.0,21.9,78,29.99,10.0,NE,10.4,-,N/A,,Clear,50,2013-03-06 07:53:00
3:53 AM,26.1,21.0,81,30.00,10.0,NNE,10.4,-,N/A,,Clear,20,2013-03-06 08:53:00
4:53 AM,26.1,21.0,81,30.03,10.0,NNE,10.4,-,N/A,,Clear,20,2013-03-06 09:53:00
5:53 AM,27.0,21.9,81,30.04,10.0,NE,12.7,-,N/A,,Clear,40,2013-03-06 10:53:00
6:53 AM,28.4,23.0,80,30.05,10.0,NNE,13.8,-,N/A,,Clear,30,2013-03-06 11:53:00
7:53 AM,28.9,24.1,82,30.11,10.0,NNE,11.5,-,N/A,,Clear,20,2013-03-06 12:53:00
8:14 AM,30.2,26.6,86,30.09,10.0,NNE,11.5,-,N/A,,Mostly Cloudy,20,2013-03-06 13:14:00
8:53 AM,32.0,27.0,82,30.14,10.0,NE,12.7,-,N/A,,Overcast,40,2013-03-06 13:53:00
9:53 AM,33.1,27.0,78,30.15,10.0,NE,13.8,-,N/A,,Overcast,40,2013-03-06 14:53:00
10:53 AM,34.0,27.0,75,30.14,10.0,NE,15.0,-,N/A,,Overcast,50,2013-03-06 15:53:00
11:53 AM,35.1,28.0,76,30.17,10.0,NNE,13.8,-,N/A,,Overcast,30,2013-03-06 16:53:00
12:53 PM,35.1,28.0,76,30.18,10.0,NE,12.7,-,N/A,,Overcast,40,2013-03-06 17:53:00
1:53 PM,35.1,28.0,76,30.17,10.0,NE,12.7,-,N/A,,Mostly Cloudy,50,2013-03-06 18:53:00
2:53 PM,36.0,28.0,73,30.17,10.0,ENE,12.7,-,N/A,,Scattered Clouds,60,2013-03-06 19:53:00
3:53 PM,37.0,28.0,70,30.18,10.0,NE,8.1,-,N/A,,Clear,40,2013-03-06 20:53:00
4:53 PM,35.1,28.0,76,30.19,10.0,NE,6.9,-,N/A,,Clear,50,2013-03-06 21:53:00
5:53 PM,34.0,28.0,79,30.21,10.0,ENE,4.6,-,N/A,,Overcast,60,2013-03-06 22:53:00
6:53 PM,34.0,28.0,79,30.22,10.0,NE,3.5,-,N/A,,Overcast,50,2013-03-06 23:53:00
7:53 PM,33.1,28.0,82,30.22,10.0,Calm,Calm,-,N/A,,Overcast,0,2013-03-07 00:53:00
8:53 PM,33.1,28.0,82,30.22,10.0,Calm,Calm,-,N/A,,Overcast,0,2013-03-07 01:53:00
9:53 PM,32.0,28.0,85,30.24,10.0,Calm,Calm,-,N/A,,Overcast,0,2013-03-07 02:53:00
10:53 PM,33.1,28.0,82,30.24,10.0,WNW,3.5,-,N/A,,Overcast,300,2013-03-07 03:53:00
11:53 PM,33.1,28.0,82,30.23,6.0,Calm,Calm,-,0.00,Snow,Light Snow,0,2013-03-07 04:53:00